Time;durP1;ratioP1;P1;durP2;ratioP2;P2;SDS_P1;SDS_P2;PMS_P1;PMS_P2;Temp;Humidity;BMP_temperature;BMP_pressure;BME280_temperature;BME280_humidity;BME280_pressure;Samples;Min_cycle;Max_cycle;Signal;HPM_P1;HPM_P2
2022/01/10 00:00:16;;;;;;;3.07;2.87;;;;;;;1.60;99.90;95934.75;5064193;28;20216;-69
2022/01/10 00:02:47;;;;;;;2.93;2.73;;;;;;;1.61;100.00;95942.47;5063358;28;20319;-68
2022/01/10 00:05:13;;;;;;;3.10;2.90;;;;;;;1.57;100.00;95938.41;5063899;28;20200;-69
2022/01/10 00:07:40;;;;;;;3.33;3.13;;;;;;;1.61;100.00;95941.63;5062728;28;20220;-69
2022/01/10 00:10:07;;;;;;;3.77;3.47;;;;;;;1.64;99.95;95942.25;5063576;28;20202;-70
2022/01/10 00:12:34;;;;;;;3.87;3.57;;;;;;;1.63;99.19;95947.59;5066055;28;21250;-70
2022/01/10 00:15:00;;;;;;;3.80;3.60;;;;;;;1.65;99.66;95945.69;5066711;28;20206;-69
2022/01/10 00:17:27;;;;;;;4.17;3.87;;;;;;;1.66;99.45;95950.81;5063447;28;20206;-69
2022/01/10 00:19:55;;;;;;;3.60;3.40;;;;;;;1.61;100.00;95950.28;5065034;28;20214;-68
2022/01/10 00:22:23;;;;;;;4.37;4.07;;;;;;;1.61;99.86;95947.69;5065863;28;20206;-69
2022/01/10 00:24:49;;;;;;;4.33;4.00;;;;;;;1.64;99.92;95944.88;5068034;28;20209;-69
2022/01/10 00:27:16;;;;;;;5.40;5.00;;;;;;;1.57;100.00;95943.63;5069170;28;20213;-68
2022/01/10 00:29:42;;;;;;;5.77;5.30;;;;;;;1.69;99.44;95945.41;5066920;28;20222;-70
2022/01/10 00:32:09;;;;;;;5.93;5.30;;;;;;;1.69;99.32;95958.44;5068541;28;20220;-68
2022/01/10 00:34:35;;;;;;;5.13;4.73;;;;;;;1.64;99.70;95955.28;5068624;28;20681;-71
2022/01/10 00:37:04;;;;;;;4.87;4.47;;;;;;;1.67;99.08;95957.69;5068609;28;20577;-68
2022/01/10 00:39:30;;;;;;;6.07;5.57;;;;;;;1.67;99.51;95959.44;5066450;28;20631;-70
2022/01/10 00:41:57;;;;;;;5.40;5.00;;;;;;;1.70;99.00;95967.88;5084923;28;20215;-70
2022/01/10 00:44:26;;;;;;;5.93;5.43;;;;;;;1.62;99.41;95969.38;5088376;28;20214;-69
2022/01/10 00:46:53;;;;;;;6.77;6.17;;;;;;;1.62;99.73;95969.38;5084932;28;20265;-69
2022/01/10 00:49:19;;;;;;;6.03;5.53;;;;;;;1.62;100.00;95970.22;5079325;28;20233;-69
2022/01/10 00:51:46;;;;;;;6.23;5.73;;;;;;;1.56;99.98;95975.00;5067958;28;20203;-69
2022/01/10 00:54:14;;;;;;;6.20;5.70;;;;;;;1.57;100.00;95980.09;5069895;28;20197;-71
2022/01/10 00:56:40;;;;;;;6.37;5.77;;;;;;;1.67;100.00;95981.13;5068688;28;20223;-68
2022/01/10 00:59:07;;;;;;;6.73;6.13;;;;;;;1.72;99.26;95988.66;5064557;28;20480;-70
2022/01/10 01:01:33;;;;;;;6.20;5.70;;;;;;;1.59;100.00;95993.88;5060617;28;20229;-68
2022/01/10 01:04:00;;;;;;;6.07;5.57;;;;;;;1.63;99.18;96003.13;5062919;28;20224;-70
2022/01/10 01:06:26;;;;;;;6.30;5.80;;;;;;;1.61;98.73;96002.41;5062865;28;20216;-69
2022/01/10 01:08:58;;;;;;;6.17;5.67;;;;;;;1.58;99.68;96002.63;5062420;28;20228;-70
2022/01/10 01:12:06;;;;;;;5.80;5.30;;;;;;;1.58;99.74;96007.84;5061749;28;20554;-70
2022/01/10 01:17:46;;;;;;;6.37;5.77;;;;;;;1.52;100.00;96013.47;5056541;28;20339;-70
2022/01/10 01:20:31;;;;;;;6.17;5.67;;;;;;;1.53;100.00;96028.13;5061978;28;20229;-69
2022/01/10 01:25:42;;;;;;;5.90;5.40;;;;;;;1.57;100.00;96039.19;5062434;28;20256;-70
2022/01/10 01:28:11;;;;;;;5.87;5.37;;;;;;;1.57;100.00;96039.19;5061037;28;20236;-68
2022/01/10 01:30:38;;;;;;;6.17;5.67;;;;;;;1.64;100.00;96035.22;5061574;28;20219;-70
2022/01/10 01:33:04;;;;;;;5.97;5.37;;;;;;;1.63;100.00;96041.41;5062172;28;20224;-70
2022/01/10 01:35:32;;;;;;;5.70;5.20;;;;;;;1.58;100.00;96052.13;5062298;28;20218;-69
2022/01/10 01:37:59;;;;;;;5.70;5.20;;;;;;;1.61;100.00;96045.88;5061616;28;20211;-70
2022/01/10 01:40:28;;;;;;;5.30;4.90;;;;;;;1.58;100.00;96054.72;5061952;28;20212;-70
2022/01/10 01:42:55;;;;;;;5.43;4.97;;;;;;;1.55;100.00;96052.34;5061547;28;20262;-69
2022/01/10 01:45:36;;;;;;;5.23;4.73;;;;;;;1.63;100.00;96059.66;5062681;28;20530;-71
2022/01/10 01:48:03;;;;;;;4.83;4.43;;;;;;;1.65;100.00;96062.97;5061899;28;20215;-69
2022/01/10 01:50:30;;;;;;;4.63;4.23;;;;;;;1.67;99.70;96064.53;5061936;28;20210;-68
2022/01/10 01:52:56;;;;;;;5.03;4.50;;;;;;;1.61;99.67;96059.75;5061204;28;20201;-70
2022/01/10 01:55:23;;;;;;;5.07;4.67;;;;;;;1.61;99.68;96064.09;5061582;28;20636;-69
2022/01/10 01:57:49;;;;;;;4.40;4.10;;;;;;;1.53;100.00;96069.81;5061396;28;20222;-69
2022/01/10 02:00:19;;;;;;;4.80;4.40;;;;;;;1.55;99.95;96073.19;5061984;28;20206;-71
2022/01/10 02:02:47;;;;;;;4.73;4.37;;;;;;;1.54;100.00;96070.66;5061161;28;20334;-70
2022/01/10 02:05:14;;;;;;;4.20;3.90;;;;;;;1.47;100.00;96073.69;5060950;28;20216;-70
2022/01/10 02:07:40;;;;;;;3.67;3.47;;;;;;;1.47;100.00;96075.47;5063820;28;20204;-69
2022/01/10 02:10:08;;;;;;;4.30;3.90;;;;;;;1.48;100.00;96077.13;5061393;28;20223;-69
2022/01/10 02:12:34;;;;;;;3.90;3.60;;;;;;;1.45;100.00;96079.94;5061582;28;20206;-70
2022/01/10 02:15:01;;;;;;;3.40;3.20;;;;;;;1.42;100.00;96090.53;5061812;28;20211;-69
2022/01/10 02:17:34;;;;;;;4.53;4.20;;;;;;;1.41;99.75;96092.34;5061488;28;20206;-69
2022/01/10 02:20:02;;;;;;;4.33;4.00;;;;;;;1.59;100.00;96081.63;5061835;28;20247;-70
2022/01/10 02:22:28;;;;;;;3.50;3.20;;;;;;;1.60;99.94;96086.72;5060895;28;20208;-69
2022/01/10 02:24:55;;;;;;;2.40;2.30;;;;;;;1.60;99.82;96081.50;5061014;28;20215;-67
2022/01/10 02:27:22;;;;;;;1.53;1.43;;;;;;;1.66;100.00;96086.34;5061967;28;20213;-68
2022/01/10 02:29:48;;;;;;;0.50;0.50;;;;;;;1.84;98.64;96087.69;5061484;28;20270;-68
2022/01/10 02:32:15;;;;;;;0.20;0.20;;;;;;;1.88;98.07;96091.75;5061404;28;20206;-68
2022/01/10 02:34:41;;;;;;;0.30;0.30;;;;;;;1.91;97.54;96090.72;5060891;28;20209;-67
2022/01/10 02:37:09;;;;;;;0.40;0.40;;;;;;;1.81;97.99;96100.09;5061362;28;20224;-68
2022/01/10 02:39:37;;;;;;;0.70;0.30;;;;;;;1.64;98.70;96103.81;5062945;28;20217;-70
2022/01/10 02:42:04;;;;;;;0.63;0.63;;;;;;;1.59;98.16;96100.72;5065220;28;20610;-70
2022/01/10 02:44:30;;;;;;;0.20;0.20;;;;;;;1.61;99.35;96104.03;5066516;28;20214;-70
2022/01/10 02:46:57;;;;;;;0.37;0.37;;;;;;;1.65;99.12;96110.72;5070989;28;20209;-67
2022/01/10 02:49:25;;;;;;;0.30;0.30;;;;;;;1.64;99.51;96119.47;5068476;28;20249;-70
2022/01/10 02:51:52;;;;;;;0.33;0.30;;;;;;;1.55;99.99;96119.25;5067315;28;20205;-69
2022/01/10 02:54:22;;;;;;;1.40;0.43;;;;;;;1.52;100.00;96119.44;5064339;28;20208;-68
2022/01/10 02:56:51;;;;;;;0.50;0.47;;;;;;;1.51;100.00;96129.03;5068073;28;20282;-70
2022/01/10 02:59:18;;;;;;;0.57;0.57;;;;;;;1.52;100.00;96125.50;5068334;28;20304;-67
2022/01/10 03:01:45;;;;;;;0.60;0.60;;;;;;;1.52;100.00;96135.09;5067163;28;20246;-68
2022/01/10 03:04:12;;;;;;;0.70;0.70;;;;;;;1.59;100.00;96131.97;5065267;28;20211;-69
2022/01/10 03:06:40;;;;;;;0.70;0.70;;;;;;;1.65;100.00;96135.94;5066535;28;20197;-68
2022/01/10 03:09:07;;;;;;;0.80;0.80;;;;;;;1.68;99.92;96130.50;5066041;28;20225;-69
2022/01/10 03:11:35;;;;;;;1.23;1.13;;;;;;;1.61;99.88;96144.88;5066810;28;20260;-70
2022/01/10 03:14:02;;;;;;;1.33;1.23;;;;;;;1.71;99.43;96144.19;5066013;28;20643;-68
2022/01/10 03:16:28;;;;;;;1.30;1.20;;;;;;;1.74;99.82;96146.56;5067285;28;20200;-70
2022/01/10 03:18:55;;;;;;;1.30;1.20;;;;;;;1.76;99.22;96143.88;5066189;28;20510;-70
2022/01/10 03:21:21;;;;;;;1.43;1.10;;;;;;;1.74;98.75;96149.19;5065573;28;20226;-68
2022/01/10 03:23:48;;;;;;;1.07;1.00;;;;;;;1.68;99.33;96152.22;5064172;28;20218;-68
2022/01/10 03:26:15;;;;;;;0.73;0.73;;;;;;;1.70;99.29;96150.31;5062954;28;20212;-68
2022/01/10 03:28:42;;;;;;;0.93;0.70;;;;;;;1.79;99.38;96154.94;5063874;28;20233;-70
2022/01/10 03:31:09;;;;;;;1.47;0.40;;;;;;;1.76;99.32;96156.91;5064389;28;20210;-68
2022/01/10 03:33:35;;;;;;;1.07;0.67;;;;;;;1.81;98.67;96160.03;5063819;28;20209;-69
2022/01/10 03:36:02;;;;;;;0.60;0.60;;;;;;;1.79;98.78;96157.53;5064283;28;20200;-69
2022/01/10 03:38:29;;;;;;;0.80;0.60;;;;;;;1.76;97.71;96170.78;5064008;28;20514;-69
2022/01/10 03:40:55;;;;;;;2.40;0.43;;;;;;;1.68;99.06;96178.28;5064004;28;20551;-69
2022/01/10 03:43:22;;;;;;;0.70;0.70;;;;;;;1.62;99.12;96170.84;5064009;28;20212;-69
2022/01/10 03:45:50;;;;;;;0.60;0.60;;;;;;;1.68;99.27;96173.06;5064473;28;20209;-70
2022/01/10 03:48:16;;;;;;;1.57;1.50;;;;;;;1.68;99.45;96180.03;5064028;28;20239;-68
2022/01/10 03:50:43;;;;;;;1.80;1.70;;;;;;;1.74;99.28;96183.06;5063914;28;20232;-68
2022/01/10 03:53:09;;;;;;;1.67;1.57;;;;;;;1.71;99.37;96183.28;5063387;28;20211;-70
2022/01/10 03:55:36;;;;;;;1.87;1.77;;;;;;;1.74;99.30;96188.28;5064327;28;20213;-68
2022/01/10 03:58:02;;;;;;;2.27;2.13;;;;;;;1.76;98.87;96186.44;5064372;28;20217;-70
2022/01/10 04:00:29;;;;;;;3.40;3.20;;;;;;;1.71;99.83;96198.91;5064271;28;20206;-68
2022/01/10 04:03:01;;;;;;;2.83;2.60;;;;;;;1.73;99.09;96194.44;5064569;28;20197;-69
2022/01/10 04:05:28;;;;;;;2.10;2.00;;;;;;;1.65;99.02;96196.72;5064653;28;20215;-69
2022/01/10 04:07:54;;;;;;;2.57;2.03;;;;;;;1.67;98.88;96196.59;5064420;28;20212;-68
2022/01/10 04:10:21;;;;;;;2.63;2.43;;;;;;;1.61;99.82;96197.84;5064848;28;20225;-68
2022/01/10 04:12:47;;;;;;;2.00;1.90;;;;;;;1.64;99.97;96202.00;5065225;28;20213;-69
2022/01/10 04:15:14;;;;;;;1.90;1.80;;;;;;;1.66;99.17;96200.16;5067821;28;20545;-69
2022/01/10 04:17:40;;;;;;;1.30;1.20;;;;;;;1.66;100.00;96205.38;5079331;28;20213;-70
2022/01/10 04:20:09;;;;;;;1.70;1.17;;;;;;;1.65;99.82;96209.75;5077409;28;20203;-71
2022/01/10 04:22:36;;;;;;;0.70;0.70;;;;;;;1.69;99.68;96203.41;5075551;28;20214;-69
2022/01/10 04:25:04;;;;;;;1.47;1.13;;;;;;;1.69;99.17;96211.22;5076897;28;20206;-69
2022/01/10 04:27:32;;;;;;;0.63;0.63;;;;;;;1.65;100.00;96214.13;5076295;28;20628;-70
2022/01/10 04:29:58;;;;;;;1.10;1.00;;;;;;;1.69;99.46;96211.22;5086008;28;20250;-69
2022/01/10 04:32:27;;;;;;;1.33;1.23;;;;;;;1.69;99.68;96213.81;5089551;28;20210;-69
2022/01/10 04:34:53;;;;;;;1.67;1.57;;;;;;;1.73;98.98;96217.06;5083302;28;20217;-68
2022/01/10 04:37:21;;;;;;;1.70;1.60;;;;;;;1.70;98.94;96217.28;5077733;28;20213;-68
2022/01/10 04:39:47;;;;;;;1.60;1.50;;;;;;;1.71;99.49;96235.41;5065381;28;20210;-68
2022/01/10 04:42:14;;;;;;;2.10;2.00;;;;;;;1.71;99.24;96224.97;5078105;28;20222;-70
2022/01/10 04:44:41;;;;;;;2.30;2.10;;;;;;;1.75;99.45;96234.28;5082196;28;20195;-72
2022/01/10 04:47:08;;;;;;;2.70;2.50;;;;;;;1.81;98.61;96236.47;5078396;28;20274;-70
2022/01/10 04:49:54;;;;;;;2.57;2.37;;;;;;;1.76;98.71;96242.94;5075978;28;20228;-69
2022/01/10 04:52:22;;;;;;;2.60;2.40;;;;;;;1.87;97.79;96243.91;5072513;28;20193;-70
2022/01/10 04:54:49;;;;;;;2.93;2.70;;;;;;;1.87;97.56;96243.06;5078933;28;20232;-69
2022/01/10 04:57:15;;;;;;;2.47;2.30;;;;;;;1.89;97.31;96249.84;5083510;28;20196;-69
2022/01/10 04:59:42;;;;;;;2.30;2.20;;;;;;;1.91;97.16;96257.59;5073263;28;20226;-69
2022/01/10 05:02:10;;;;;;;2.90;2.70;;;;;;;1.87;97.33;96258.72;5069762;28;20243;-71
2022/01/10 05:04:36;;;;;;;2.80;2.60;;;;;;;1.80;97.42;96262.66;5067448;28;21417;-69
2022/01/10 05:07:03;;;;;;;2.87;2.50;;;;;;;1.74;98.57;96260.41;5065462;28;20205;-68
2022/01/10 05:09:31;;;;;;;3.47;2.70;;;;;;;1.66;98.76;96273.97;5062787;28;20243;-70
2022/01/10 05:11:58;;;;;;;2.83;2.63;;;;;;;1.68;99.29;96281.69;5062944;28;20212;-70
2022/01/10 05:14:25;;;;;;;3.10;2.90;;;;;;;1.64;99.00;96283.66;5063483;28;20227;-69
2022/01/10 05:16:51;;;;;;;2.97;2.77;;;;;;;1.72;98.40;96289.22;5062482;28;20209;-68
2022/01/10 05:19:18;;;;;;;3.33;3.03;;;;;;;1.65;97.91;96293.16;5062977;28;20206;-69
2022/01/10 05:21:45;;;;;;;3.90;3.30;;;;;;;1.57;98.83;96295.38;5063235;28;20205;-68
2022/01/10 05:24:11;;;;;;;3.27;3.07;;;;;;;1.64;98.96;96294.06;5063268;28;20215;-69
2022/01/10 05:26:39;;;;;;;2.63;2.43;;;;;;;1.63;98.54;96302.81;5062783;28;20206;-69
2022/01/10 05:29:06;;;;;;;2.97;2.50;;;;;;;1.66;99.09;96300.03;5062127;28;20212;-68
2022/01/10 05:31:33;;;;;;;3.87;2.83;;;;;;;1.71;100.00;96305.78;5062160;28;20514;-68
2022/01/10 05:34:00;;;;;;;2.43;2.30;;;;;;;1.72;99.01;96309.22;5062636;28;20222;-70
2022/01/10 05:36:26;;;;;;;2.87;2.67;;;;;;;1.71;98.60;96312.75;5062257;28;20202;-68
2022/01/10 05:38:53;;;;;;;2.70;2.50;;;;;;;1.67;98.34;96314.72;5061603;28;20200;-69
2022/01/10 05:41:21;;;;;;;2.93;2.73;;;;;;;1.70;98.91;96311.09;5062259;28;20220;-68
2022/01/10 05:43:48;;;;;;;3.30;3.10;;;;;;;1.76;98.59;96315.91;5061975;28;20216;-70
2022/01/10 05:46:18;;;;;;;3.83;3.13;;;;;;;1.72;98.13;96315.28;5061470;28;20214;-70
2022/01/10 05:48:47;;;;;;;4.10;3.70;;;;;;;1.71;97.77;96315.34;5062095;28;20216;-68
2022/01/10 05:51:14;;;;;;;4.07;3.63;;;;;;;1.70;98.34;96326.75;5061682;28;20231;-69
2022/01/10 05:53:41;;;;;;;4.83;3.90;;;;;;;1.69;97.91;96322.44;5063349;28;20218;-69
2022/01/10 05:56:08;;;;;;;3.80;3.40;;;;;;;1.70;98.42;96332.75;5062011;28;20209;-68
2022/01/10 05:58:35;;;;;;;4.57;3.60;;;;;;;1.68;98.90;96336.41;5062292;28;20206;-68
2022/01/10 06:01:02;;;;;;;4.27;3.80;;;;;;;1.69;99.16;96345.91;5061530;28;20235;-69
2022/01/10 06:03:29;;;;;;;4.60;3.90;;;;;;;1.75;98.83;96356.78;5062079;28;20209;-69
2022/01/10 06:05:55;;;;;;;4.90;4.50;;;;;;;1.73;98.14;96356.06;5062788;28;20210;-69
2022/01/10 06:08:22;;;;;;;4.43;4.03;;;;;;;1.75;98.48;96364.59;5061503;28;20211;-68
2022/01/10 06:10:48;;;;;;;6.87;4.50;;;;;;;1.69;98.54;96361.53;5062180;28;20236;-68
2022/01/10 06:13:15;;;;;;;5.17;4.07;;;;;;;1.78;98.42;96377.44;5062895;28;20232;-70
2022/01/10 06:15:42;;;;;;;4.70;4.23;;;;;;;1.82;98.34;96378.91;5062455;28;20212;-69
2022/01/10 06:18:09;;;;;;;6.13;4.53;;;;;;;1.77;97.46;96374.94;5062470;28;20209;-68
2022/01/10 06:20:36;;;;;;;5.67;4.00;;;;;;;1.75;97.65;96388.06;5062057;28;20224;-69
2022/01/10 06:23:02;;;;;;;4.30;3.93;;;;;;;1.69;98.88;96393.66;5064012;28;20209;-68
2022/01/10 06:25:29;;;;;;;4.43;3.97;;;;;;;1.64;99.58;96402.69;5063684;28;20197;-70
2022/01/10 06:27:57;;;;;;;4.87;4.37;;;;;;;1.66;99.49;96398.22;5070225;28;20221;-69
2022/01/10 06:30:23;;;;;;;6.53;4.57;;;;;;;1.66;99.43;96412.09;5089277;28;20256;-69
2022/01/10 06:32:50;;;;;;;4.73;4.33;;;;;;;1.71;99.19;96417.84;5094674;28;20207;-70
2022/01/10 06:35:18;;;;;;;4.47;4.07;;;;;;;1.64;99.48;96413.94;5087953;28;20182;-68
2022/01/10 06:37:44;;;;;;;5.63;4.40;;;;;;;1.66;99.90;96425.13;5080832;28;20189;-68
2022/01/10 06:40:14;;;;;;;5.47;4.97;;;;;;;1.65;99.89;96428.66;5071346;28;20197;-69
2022/01/10 06:42:41;;;;;;;5.03;4.57;;;;;;;1.65;99.79;96439.09;5067596;28;20213;-68
2022/01/10 06:45:08;;;;;;;5.87;4.70;;;;;;;1.77;99.15;96434.91;5063506;28;20205;-67
2022/01/10 06:47:35;;;;;;;7.07;5.23;;;;;;;1.62;98.49;96438.44;5062754;28;20205;-69
2022/01/10 06:50:01;;;;;;;5.83;5.33;;;;;;;1.73;99.62;96442.06;5061054;28;20697;-68
2022/01/10 06:52:29;;;;;;;6.23;5.63;;;;;;;1.74;99.30;96448.94;5061561;28;20664;-68
2022/01/10 06:54:56;;;;;;;7.63;6.10;;;;;;;1.72;99.61;96456.03;5061400;28;20524;-69
2022/01/10 06:57:22;;;;;;;6.53;6.00;;;;;;;1.69;98.76;96461.44;5061197;28;20524;-67
2022/01/10 06:59:49;;;;;;;7.00;6.30;;;;;;;1.73;99.37;96464.69;5061374;28;20211;-67
2022/01/10 07:02:15;;;;;;;6.27;5.67;;;;;;;1.67;99.85;96475.47;5067080;28;20246;-70
2022/01/10 07:04:41;;;;;;;7.40;6.10;;;;;;;1.74;99.85;96476.78;5066146;28;20210;-68
2022/01/10 07:07:08;;;;;;;7.67;6.87;;;;;;;1.74;99.94;96484.59;5064662;28;20210;-69
2022/01/10 07:09:36;;;;;;;7.13;6.43;;;;;;;1.75;99.43;96492.31;5063501;28;20549;-70
2022/01/10 07:12:03;;;;;;;6.53;5.93;;;;;;;1.77;99.28;96503.50;5062664;28;20198;-68
2022/01/10 07:14:32;;;;;;;6.90;5.47;;;;;;;1.82;98.70;96504.06;5061818;28;20205;-69
2022/01/10 07:16:58;;;;;;;6.43;5.83;;;;;;;1.79;98.11;96519.88;5061042;28;20287;-69
2022/01/10 07:19:25;;;;;;;6.30;5.70;;;;;;;1.80;98.17;96521.56;5060628;28;20222;-68
2022/01/10 07:21:52;;;;;;;6.17;5.67;;;;;;;1.82;98.41;96524.91;5060881;28;20213;-69
2022/01/10 07:24:18;;;;;;;7.50;6.70;;;;;;;1.74;97.69;96519.31;5061545;28;20202;-69
2022/01/10 07:26:46;;;;;;;7.20;6.50;;;;;;;1.73;98.77;96530.69;5061082;28;20221;-67
2022/01/10 07:29:13;;;;;;;7.90;6.70;;;;;;;1.81;98.60;96533.66;5064931;28;20199;-69
2022/01/10 07:31:40;;;;;;;7.87;6.90;;;;;;;1.84;98.29;96527.44;5064188;28;20248;-68
2022/01/10 07:34:10;;;;;;;8.27;6.80;;;;;;;1.78;99.00;96533.00;5064736;28;20287;-68
2022/01/10 07:36:37;;;;;;;7.70;6.90;;;;;;;1.75;98.84;96541.84;5063986;28;20251;-67
2022/01/10 07:39:04;;;;;;;8.07;6.67;;;;;;;1.74;98.21;96550.59;5063541;28;20217;-68
2022/01/10 07:41:30;;;;;;;8.70;6.80;;;;;;;1.81;98.93;96548.47;5063664;28;20213;-70
2022/01/10 07:43:59;;;;;;;7.43;6.53;;;;;;;1.84;98.78;96549.13;5064230;28;20227;-68
2022/01/10 07:46:25;;;;;;;10.33;7.20;;;;;;;1.89;99.04;96554.91;5064488;28;20226;-69
2022/01/10 07:48:54;;;;;;;7.97;6.70;;;;;;;1.82;98.74;96561.41;5063600;28;20205;-68
2022/01/10 07:51:20;;;;;;;6.83;5.87;;;;;;;1.78;99.05;96564.28;5063732;28;20249;-68
2022/01/10 07:53:47;;;;;;;7.73;6.17;;;;;;;1.83;99.56;96568.31;5063331;28;20214;-69
2022/01/10 07:56:13;;;;;;;7.03;6.00;;;;;;;1.91;98.94;96581.72;5064047;28;20210;-70
2022/01/10 07:58:40;;;;;;;7.63;6.93;;;;;;;1.91;98.88;96576.50;5063391;28;20201;-70
2022/01/10 08:01:07;;;;;;;7.90;7.10;;;;;;;1.93;98.59;96579.03;5063290;28;20233;-68
2022/01/10 08:03:34;;;;;;;8.83;6.03;;;;;;;1.97;98.48;96586.56;5063876;28;20296;-69
2022/01/10 08:06:00;;;;;;;7.37;6.60;;;;;;;2.07;97.99;96591.22;5063211;28;20214;-69
2022/01/10 08:08:28;;;;;;;6.70;6.10;;;;;;;2.08;97.53;96583.31;5063736;28;20210;-68
2022/01/10 08:10:54;;;;;;;9.13;6.33;;;;;;;2.15;97.05;96589.00;5063191;28;20310;-68
2022/01/10 08:13:21;;;;;;;7.73;6.97;;;;;;;2.22;96.61;96595.53;5065191;28;20214;-67
2022/01/10 08:15:47;;;;;;;6.60;6.00;;;;;;;2.24;96.83;96588.44;5063175;28;20294;-69
2022/01/10 08:18:15;;;;;;;6.83;6.20;;;;;;;2.19;97.51;96595.72;5070261;28;20202;-70
2022/01/10 08:20:42;;;;;;;7.60;6.10;;;;;;;2.31;96.60;96608.00;5074759;28;20308;-68
2022/01/10 08:23:08;;;;;;;9.27;7.27;;;;;;;2.36;94.35;96612.00;5069486;28;20190;-69
2022/01/10 08:25:35;;;;;;;7.43;6.73;;;;;;;2.42;94.64;96622.06;5064429;28;20537;-69
2022/01/10 08:28:01;;;;;;;6.80;6.13;;;;;;;2.47;94.46;96627.00;5064682;28;20214;-68
2022/01/10 08:30:28;;;;;;;7.70;6.00;;;;;;;2.38;94.86;96627.56;5064024;28;20227;-67
2022/01/10 08:32:54;;;;;;;6.60;6.00;;;;;;;2.35;95.64;96627.75;5063290;28;20207;-67
2022/01/10 08:35:22;;;;;;;6.87;6.23;;;;;;;2.32;95.53;96627.94;5063527;28;20531;-67
2022/01/10 08:37:51;;;;;;;8.07;6.50;;;;;;;2.22;96.55;96642.47;5063229;28;20666;-69
2022/01/10 08:40:17;;;;;;;7.37;6.10;;;;;;;2.23;97.33;96636.34;5063822;28;20268;-69
2022/01/10 08:42:44;;;;;;;6.70;5.90;;;;;;;2.24;97.81;96638.84;5063613;28;20199;-67
2022/01/10 08:45:11;;;;;;;6.63;6.03;;;;;;;2.31;97.39;96644.53;5062638;28;20645;-67
2022/01/10 08:47:38;;;;;;;6.20;5.60;;;;;;;2.39;97.49;96650.97;5063021;28;20202;-68
2022/01/10 08:50:05;;;;;;;6.53;5.93;;;;;;;2.45;96.83;96654.97;5062936;28;20226;-67
2022/01/10 08:52:33;;;;;;;6.53;5.87;;;;;;;2.57;95.55;96659.44;5064903;28;20230;-67
2022/01/10 08:55:00;;;;;;;6.50;5.90;;;;;;;2.54;94.86;96661.41;5063975;28;20227;-67
2022/01/10 08:57:27;;;;;;;6.87;6.17;;;;;;;2.53;96.15;96660.56;5063825;28;20213;-68
2022/01/10 08:59:53;;;;;;;9.90;6.47;;;;;;;2.62;95.65;96674.84;5062868;28;20626;-68
2022/01/10 09:02:20;;;;;;;8.53;6.40;;;;;;;2.54;96.12;96677.91;5062632;28;20251;-68
2022/01/10 09:04:46;;;;;;;9.33;7.10;;;;;;;2.60;94.95;96680.13;5060970;28;20596;-68
2022/01/10 09:07:13;;;;;;;8.03;7.20;;;;;;;2.61;95.08;96689.66;5064110;28;20653;-70
2022/01/10 09:09:42;;;;;;;7.90;6.53;;;;;;;2.54;96.12;96690.97;5064407;28;20214;-70
2022/01/10 09:12:10;;;;;;;7.27;6.40;;;;;;;2.58;96.59;96695.06;5065578;28;20285;-69
2022/01/10 09:14:36;;;;;;;6.87;6.03;;;;;;;2.74;95.70;96695.78;5062834;28;20206;-69
2022/01/10 09:17:03;;;;;;;7.03;5.73;;;;;;;3.11;93.21;96696.13;5062800;28;20229;-67
2022/01/10 09:19:30;;;;;;;5.70;5.13;;;;;;;3.60;90.47;96699.91;5062324;28;20202;-69
2022/01/10 09:21:56;;;;;;;7.17;6.47;;;;;;;3.73;87.87;96711.25;5062881;28;20495;-69
2022/01/10 09:24:23;;;;;;;6.93;6.33;;;;;;;3.78;87.37;96711.78;5062374;28;20202;-69
2022/01/10 09:26:51;;;;;;;7.50;6.80;;;;;;;3.68;88.78;96712.50;5062764;28;20214;-67
2022/01/10 09:29:18;;;;;;;7.83;6.90;;;;;;;3.63;88.68;96723.22;5062315;28;20297;-68
2022/01/10 09:31:45;;;;;;;10.20;6.73;;;;;;;3.59;89.67;96721.75;5062182;28;20234;-68
2022/01/10 09:34:12;;;;;;;7.47;6.77;;;;;;;3.46;90.48;96723.47;5062417;28;20237;-67
2022/01/10 09:36:38;;;;;;;7.17;6.13;;;;;;;3.44;91.73;96725.34;5061990;28;20207;-67
2022/01/10 09:39:05;;;;;;;8.00;5.63;;;;;;;3.53;90.22;96731.75;5064221;28;20263;-68
2022/01/10 09:41:32;;;;;;;10.40;5.80;;;;;;;3.45;89.93;96738.31;5066294;28;20499;-69
2022/01/10 09:44:06;;;;;;;6.13;5.17;;;;;;;3.55;89.03;96745.56;5066489;28;20272;-69
2022/01/10 09:46:34;;;;;;;7.33;6.57;;;;;;;3.51;88.92;96744.91;5064406;28;20247;-68
2022/01/10 09:49:02;;;;;;;6.97;5.97;;;;;;;3.50;87.72;96751.94;5060740;28;20639;-69
2022/01/10 09:51:29;;;;;;;5.90;5.30;;;;;;;3.42;89.75;96758.59;5062205;28;20229;-69
2022/01/10 09:53:56;;;;;;;6.80;5.53;;;;;;;3.45;87.84;96759.22;5062057;28;20207;-69
2022/01/10 09:56:22;;;;;;;6.27;5.30;;;;;;;3.42;88.85;96763.81;5061365;28;20526;-68
2022/01/10 09:58:50;;;;;;;7.17;5.63;;;;;;;3.42;89.21;96766.44;5062385;28;20261;-68
2022/01/10 10:01:18;;;;;;;6.57;5.43;;;;;;;3.46;88.67;96771.38;5061809;28;20223;-68
2022/01/10 10:03:45;;;;;;;5.40;4.90;;;;;;;3.47;89.10;96777.44;5061791;28;20218;-69
2022/01/10 10:06:12;;;;;;;5.40;4.90;;;;;;;3.47;89.22;96777.44;5068190;28;20202;-69
2022/01/10 10:08:39;;;;;;;7.97;5.53;;;;;;;3.59;88.35;96781.88;5061953;28;20653;-68
2022/01/10 10:11:07;;;;;;;6.07;5.20;;;;;;;3.46;87.80;96786.22;5062282;28;20266;-67
2022/01/10 10:13:41;;;;;;;7.37;6.67;;;;;;;3.58;88.78;96784.63;5062129;28;20552;-69
2022/01/10 10:16:12;;;;;;;7.40;5.17;;;;;;;3.53;86.86;96782.28;5060567;28;20208;-68
2022/01/10 10:18:40;;;;;;;7.40;4.90;;;;;;;3.41;88.25;96790.88;5062042;28;20252;-68
2022/01/10 10:21:11;;;;;;;6.27;5.00;;;;;;;3.42;88.27;96792.56;5061862;28;20210;-71
2022/01/10 10:23:40;;;;;;;5.77;5.17;;;;;;;3.37;87.85;96797.22;5061517;28;20207;-69
2022/01/10 10:26:06;;;;;;;5.70;5.10;;;;;;;3.33;89.37;96796.59;5061336;28;20220;-68
2022/01/10 10:28:35;;;;;;;7.37;5.07;;;;;;;3.36;89.16;96796.41;5061769;28;20202;-69
2022/01/10 10:31:02;;;;;;;6.03;5.40;;;;;;;3.35;89.26;96799.13;5060819;28;20279;-69
2022/01/10 10:33:28;;;;;;;6.30;5.67;;;;;;;3.36;89.22;96811.25;5061928;28;20221;-68
2022/01/10 10:35:58;;;;;;;6.13;4.97;;;;;;;3.32;89.81;96815.00;5061198;28;20226;-69
2022/01/10 10:38:26;;;;;;;5.83;4.83;;;;;;;3.32;90.23;96812.38;5060963;28;20207;-70
2022/01/10 10:40:52;;;;;;;6.47;5.40;;;;;;;3.39;90.05;96811.91;5061857;28;20210;-70
2022/01/10 10:43:19;;;;;;;7.03;5.13;;;;;;;3.41;89.04;96815.25;5060610;28;20226;-68
2022/01/10 10:45:48;;;;;;;6.13;5.47;;;;;;;3.43;88.46;96813.41;5060906;28;20198;-70
2022/01/10 10:48:16;;;;;;;6.00;5.30;;;;;;;3.45;88.97;96816.75;5060865;28;20211;-68
2022/01/10 10:50:45;;;;;;;5.83;5.13;;;;;;;3.43;88.69;96812.56;5061329;28;20218;-68
2022/01/10 10:53:14;;;;;;;7.27;6.10;;;;;;;3.50;88.50;96816.47;5061207;28;20203;-69
2022/01/10 10:55:41;;;;;;;6.47;5.37;;;;;;;3.53;89.35;96812.81;5060744;28;20297;-68
2022/01/10 10:58:09;;;;;;;6.87;5.43;;;;;;;3.71;87.54;96816.88;5060949;28;20207;-70
2022/01/10 11:00:36;;;;;;;6.10;4.83;;;;;;;3.70;86.87;96810.81;5061192;28;20233;-67
2022/01/10 11:03:03;;;;;;;6.33;5.00;;;;;;;3.66;87.59;96819.78;5064075;28;20194;-70
2022/01/10 11:05:30;;;;;;;6.23;5.30;;;;;;;3.60;90.58;96819.34;5064312;28;20211;-70
2022/01/10 11:07:58;;;;;;;9.80;5.83;;;;;;;3.51;91.85;96821.59;5065978;28;20199;-72
2022/01/10 11:10:26;;;;;;;6.43;5.60;;;;;;;3.61;91.16;96821.03;5068114;28;20214;-71
2022/01/10 11:12:54;;;;;;;6.70;4.37;;;;;;;3.79;88.79;96818.06;5069117;28;20226;-72
2022/01/10 11:15:21;;;;;;;6.97;5.10;;;;;;;3.76;89.08;96825.25;5066778;28;20199;-70
2022/01/10 11:17:47;;;;;;;5.20;3.80;;;;;;;3.90;87.56;96825.22;5064716;28;20202;-75
2022/01/10 11:20:16;;;;;;;4.73;3.90;;;;;;;3.93;86.74;96823.25;5065008;28;20281;-73
2022/01/10 11:22:47;;;;;;;8.37;4.70;;;;;;;3.90;87.26;96828.69;5064472;28;20199;-73
2022/01/10 11:25:22;;;;;;;4.30;3.93;;;;;;;4.04;85.93;96825.19;5065213;28;20217;-73
2022/01/10 11:27:51;;;;;;;4.60;4.20;;;;;;;4.06;85.65;96830.34;5065308;28;20206;-70
2022/01/10 11:30:30;;;;;;;4.87;4.37;;;;;;;4.08;86.90;96831.06;5065860;28;20197;-73
2022/01/10 11:33:01;;;;;;;5.63;4.70;;;;;;;4.11;85.30;96831.69;5065077;28;20210;-72
2022/01/10 11:35:29;;;;;;;5.17;3.53;;;;;;;4.23;84.16;96837.94;5065692;28;20820;-72
2022/01/10 11:37:56;;;;;;;5.00;3.80;;;;;;;4.10;84.63;96837.91;5065315;28;20213;-74
2022/01/10 11:40:23;;;;;;;5.23;4.07;;;;;;;4.05;86.22;96839.13;5063961;28;20198;-72
2022/01/10 11:42:57;;;;;;;5.10;4.10;;;;;;;4.00;84.33;96844.66;5066753;28;20522;-74
2022/01/10 11:45:24;;;;;;;5.17;4.10;;;;;;;4.10;85.56;96839.66;5067127;28;20206;-78
2022/01/10 11:48:14;;;;;;;6.47;4.47;;;;;;;4.12;85.58;96843.00;5069116;28;20210;-71